Airfield :
LOGIN :

Register | Disclaimer

   EN    FR    IT 

 










Legend :    VFR   Marginal VFR   IFR   Intensive IFR   Very Intensive IFR
Visi :
Ceiling :
>= 8 km
>= 3000ft
5 to 8 km
1000 to 3000 ft
1500m to 5 km
500 to 1000 ft
800 to 1500m
200 to 500 ft
< 800m
< 200 ft
Symbols :   Thunderstorms  Fog  Heavy snow  Heavy precipitations  Wind > 20 kt
SIGMETs :     Misc.  Thunderstorms  Icing  Turbulence  Mountain Waves  Volcanic Ashes







- Airport Elevation : 23 ft
- IATA code : XFW


EDHI - Hamburg Finkenwerder

CURRENT METAR :
  • 171720Z 12004KT 060V150 5000 -DZ BR SCT006 OVC011 03/02 Q1020

EXPIRED METARs :
  • 171650Z 12005KT 090V160 3000 BKN007 OVC013 03/02 Q1019
  • 171620Z 12004KT 040V170 3900 -DZ BR OVC009 03/02 Q1019
  • 171550Z 11004KT 070V160 5000 FEW009 OVC015 03/02 Q1019
  • 171520Z 13004KT 070V180 5000 OVC016 03/02 Q1019
  • 171450Z 12004KT 070V160 4300 BR FEW007 BKN015 OVC037 03/02 Q1018

TAF TAF EDHI
Valid from the 17 at 18:00 until the 17 at 21:00 UTC


171700Z 1718/1721 13005KT 3500 -DZ BR BKN007 OVC015
TEMPO 1718/1721 6000 SCT007 OVC015
No reported NOTAMs for that airfield.



MET'MAP, your aeronautical weather chart ! - Copyright ORBIFLY December 2007 - Disclaimer

ORBIFLY MET'MAP TEAM :

Programming & Development : Alexandra Zaïnal
Concept & Development : Baudouin d'Aumeries
Co-Development & Prog : Marc-Olivier Méhu
Technical & hardware support : Manuel Goepfert

Contact : metmap@orbifly.com




SOURCES & CREDITS :

   NOAA